ДАННЫЕ О ПОГОДЕ

ВЧЕРА
Time Темп. Т росы. Влаж. Направле Скорость в Wind gust Давл. 1h Prec. 24h Prec.
00:08 10.1 8.9 92 258 4.2 9.4 995.9 0.8080 0.1000
00:21 10.1 9 93 256 3.6 11.4 995.7 0.5050 0.1000
00:35 10.1 9 93 254 2.8 8.6 995.7 0.4040 0.1000
00:41 10.1 8.9 92 250 3.1 8.9 995.7 0.2020 0.1000
00:52 10.2 9 92 251 3.1 7.2 995.6 0.3030 0.3000
01:01 10.2 9 92 257 2.8 8.3 995.6 0.3030 0.4000
01:11 10.2 9.1 93 264 2.8 7.8 995.6 0.4040 0.5000
01:21 10.2 9.1 93 270 2.5 5.8 995.4 0.5050 0.6000
01:33 10.3 9.2 93 267 2.8 11.7 995.4 0.6060 0.7000
01:43 10.4 9.3 93 270 2.8 7.2 995.4 0.8080 0.9000
01:52 10.4 9.3 93 260 2.2 6.1 995.5 0.8080 1.1000
02:02 10.4 9.3 93 267 2.8 5.6 995.5 0.8080 1.2000
02:13 10.5 9.4 93 270 3.1 8.6 995.6 1.0100 1.5000
02:23 10.5 9.4 93 273 2.8 6.1 995.5 1.1110 1.7000
02:35 10.6 9.5 93 270 2.8 9.7 995.7 1.1110 1.8000
02:44 10.7 9.8 94 270 2.5 6.7 995.7 0.9090 1.8000
02:55 10.7 9.8 94 270 2.5 5.6 995.9 0.8080 1.9000
03:05 10.8 9.7 93 278 2.5 6.1 995.9 0.8080 2.0000
03:15 10.9 9.8 93 267 2.8 7.5 996 0.7070 2.2000
03:25 10.9 10 94 275 2.8 6.4 996.1 0.6060 2.3000
03:36 11 10.1 94 277 3.1 5.6 996.1 0.5050 2.3000
03:45 11 9.9 93 275 2.8 5.8 996.3 0.8080 2.6000
03:55 10.9 9.8 93 264 1.4 3.3 996.2 1.9190 3.8000
03:59 10.9 9.8 93 308 2.8 6.4 996.2 2.1210 4.1000
04:10 11 10.1 94 276 5 6.7 996.5 3.4340 5.7000
04:19 10.9 10 94 270 2.2 4.7 996.8 4.5450 6.9000
04:29 10.8 9.7 93 262 1.9 3.3 996.9 5.5550 7.9000
04:40 10.6 9.4 92 258 1.7 3.6 996.7 6.5650 9.2000
04:50 10.5 9.4 93 255 1.7 3.3 996.8 6.5650 10.4000
04:59 10.6 9.7 94 259 1.9 4.4 996.7 5.6560 10.6000
05:10 10.8 9.9 94 270 1.7 3.1 996.6 4.7470 10.9000
05:20 10.9 10 94 290 1.9 6.1 996.9 3.9390 11.3000
05:30 10.9 10 94 286 1.9 5.3 997.1 3.8380 12.0000
05:40 10.8 9.7 93 307 1.7 3.3 997.2 3.2320 13.0000
05:51 10.6 9.4 92 290 1.4 2.8 997.2 3.5350 14.1000
06:00 10.5 9.3 92 270 1.1 2.5 997.3 3.4340 14.2000
06:11 10.4 9.3 93 297 1.7 6.1 997.5 3.8380 14.9000
06:20 10.5 9.4 93 309 1.9 4.2 997.6 4.6460 16.3000
06:31 10.4 9.3 93 288 1.7 3.6 997.6 4.5450 17.2000
06:41 10.4 9.3 93 300 1.9 3.9 997.9 3.9390 17.8000
06:51 10.3 9.2 93 297 1.7 3.3 998.1 4.1410 18.4000
07:01 10.3 9.2 93 305 1.9 4.4 998 4.7470 19.2000
07:11 10.2 9.1 93 296 1.4 3.1 997.9 3.8380 19.5000
07:21 10.2 9.1 93 283 1.1 3.1 998.1 2.8280 19.5000
07:31 10.3 9.2 93 311 1.7 3.9 998.2 2.6260 20.2000
07:42 10.3 9.2 93 299 1.4 3.3 998.3 2.5250 20.6000
07:52 10.3 9.2 93 303 1.7 4.2 998.5 2.2220 21.2000
08:01 10.2 9.1 93 290 1.7 3.1 998.6 2.3230 21.6000
08:12 10.2 9.1 93 270 1.1 2.8 998.6 3.2320 22.7000
08:22 10.1 9 93 280 1.1 2.2 999 4.7470 24.6000
08:32 10.1 9 93 293 1.7 3.3 998.9 6.4640 26.7000
08:41 10 8.9 93 278 1.4 3.1 998.9 8.8880 29.5000
08:52 10 8.9 93 258 1.1 1.9 998.7 10.4030 31.6000
09:02 10 9.1 94 263 1.4 3.3 998.7 11.5140 33.1000
09:12 10.1 9.2 94 283 1.7 3.3 998.9 11.0090 33.7000
09:22 10 8.9 93 296 1.4 3.3 999.2 9.8980 34.5000
09:33 9.9 8.8 93 270 1.7 3.3 999.4 9.2920 36.0000
09:42 9.9 8.8 93 270 1.4 2.8 999.5 7.2720 36.8000
09:52 9.8 8.7 93 270 1.4 3.3 999.7 6.0600 37.7000
10:03 9.7 8.6 93 283 1.4 4.2 999.7 5.3530 38.5000
10:13 9.6 8.5 93 284 1.4 3.1 999.8 5.1510 38.9000
10:23 9.6 8.5 93 270 1.1 2.5 999.8 5.2520 39.8000
10:33 9.6 8.7 94 280 1.4 3.1 1000 4.4440 40.4000
10:43 9.6 8.7 94 280 1.4 2.8 1000.2 4.0400 40.8000
10:53 9.6 8.7 94 270 1.4 2.8 1000.2 4.2420 41.9000
11:03 9.6 8.7 94 270 1.1 1.9 1000.2 4.4440 42.9000
11:14 9.6 8.7 94 255 1.1 2.2 1000.3 4.6460 43.5000
11:23 9.6 8.7 94 262 1.4 2.8 1000.3 4.2420 44.0000
11:33 9.6 8.7 94 256 1.4 2.2 1000.3 3.7370 44.1000
11:43 9.6 8.7 94 270 1.1 2.2 1000 3.3330 44.1000
11:47 9.6 8.7 94 284 1.1 2.2 1000.5 2.2220 44.1000
12:04 9.7 8.8 94 270 0.8 1.7 1000.6 2.4240 45.3000
12:14 9.7 8.8 94 253 1.1 2.2 1000.1 3.8380 47.4000
12:24 9.7 8.8 94 270 1.1 2.5 1000.4 4.3430 48.4000
12:34 9.6 8.7 94 270 0.8 2.2 1000.2 4.4440 48.6000
12:44 9.6 8.7 94 259 1.1 1.9 1000.2 5.0500 49.2000
12:54 9.9 9.1 95 264 1.4 3.1 999.8 12.3220 56.5000
13:04 10.2 9.4 95 270 1.9 3.6 999.9 12.2210 57.6000
13:14 10.4 9.6 95 299 1.4 2.8 1000.4 10.3020 57.7000
13:25 10.7 9.9 95 290 1.4 3.3 1000.2 9.5950 58.0000
13:32 10.8 10 95 297 1.7 3.9 1000.1 9.4940 58.1000
13:44 11 10.2 95 276 1.9 3.6 1000.2 10.6050 59.8000
13:55 10.8 9.9 94 249 2.2 4.7 1000.5 6.5650 63.0000
14:05 10.4 9.3 93 256 1.7 2.5 1000.7 7.2720 64.8000
14:15 10.3 9.2 93 289 1.7 3.1 1000.9 9.1910 66.9000
14:25 10.2 9.1 93 293 1.1 2.2 1000.7 9.2920 67.3000
14:35 10.2 9.3 94 303 1.1 3.3 1000.8 9.1910 67.3000
14:45 10.3 9.5 95 299 0.8 1.7 1000.6 7.4740 67.3000
14:55 10.5 9.7 95 259 0.8 1.9 1000.4 4.2420 67.3000
15:06 10.7 9.9 95 246 1.4 3.1 1000.3 2.7270 67.6000
15:16 11 10.2 95 250 1.4 2.5 1000.1 0.7070 67.6000
15:25 11.4 10.6 95 270 1.4 2.8 1000 0.3030 67.6000
15:35 11.6 10.8 95 279 1.4 2.8 1000.1 0.3030 67.6000
15:46 11.7 10.9 95 261 1.1 1.9 1000.2 1.1110 68.4000
15:56 11.7 10.9 95 258 1.4 1.9 1000.2 1.2120 68.5000
16:06 11.8 11 95 261 1.1 2.5 1000.3 0.9090 68.5000
16:12 12 11.2 95 270 2.2 6.4 1000.2 0.9090 68.5000
16:22 12.3 11.5 95 270 3.1 5.3 1000.2 0.9090 68.5000
16:32 12.5 11.7 95 270 3.3 6.7 1000.2 0.9090 68.5000
16:42 12.8 12 95 275 3.6 6.1 1000.3 0.1010 68.5000
16:52 12.9 12.1 95 264 3.9 7.5 1000.3 0.0000 68.5000
17:03 12.9 12 94 276 2.5 3.6 1000.4 0.0000 68.5000
17:08 13 12.1 94 266 3.1 6.7 1000.4 0.0000 68.5000
17:17 13.1 12 93 270 3.6 8.9 1000.4 0.0000 68.5000
17:27 13.4 12.1 92 311 3.1 6.4 1000.4 0.0000 68.5000
17:38 13.5 11.9 90 231 2.5 6.1 1000.5 0.0000 68.5000
17:48 13.6 11.8 89 235 2.5 5.6 1000.5 0.0000 68.5000
17:58 13.7 11.8 88 95 2.2 5 1000.5 0.0000 68.5000
18:08 13.8 11.7 87 3.1 7.2 1000.5 0.0000 68.5000
18:18 14 11.7 86 3.1 7.2 1000.6 0.0000 68.5000
18:28 14.1 11.8 86 119 2.8 5.6 1000.6 0.0000 68.5000
18:38 14.1 11.6 85 188 2.5 5.8 1000.7 0.0000 68.5000
18:49 14.1 11.6 85 206 2.2 5.6 1000.8 0.0000 68.5000
18:58 14 11.7 86 270 3.9 8.9 1000.8 0.0000 68.5000
19:08 13.9 11.4 85 270 3.1 5.8 1000.8 0.0000 68.5000
19:19 13.8 11.1 84 262 1.7 2.8 1000.9 0.0000 68.5000
19:29 13.6 11.1 85 276 1.4 3.1 1001.1 0.0000 68.5000
19:39 13.4 10.9 85 281 1.7 3.9 1000.9 0.2020 68.7000
19:49 13.1 10.6 85 258 1.4 2.5 1000.8 0.2020 68.7000
19:59 12.9 10.6 86 256 1.4 2.5 1001 0.2020 68.7000
20:09 12.8 10.7 87 254 1.4 2.5 1000.9 0.2020 68.7000
20:19 12.6 10.7 88 258 1.7 2.2 1000.9 0.2020 68.7000
20:29 12.6 10.7 88 256 1.4 2.2 1000.9 0.1010 68.7000
20:40 12.5 10.7 89 258 1.4 2.5 1000.9 0.0000 68.7000
20:49 12.5 10.9 90 256 1.4 2.2 1001 0.0000 68.7000
20:59 12.5 10.9 90 256 1.4 3.1 1001 0.0000 68.7000
21:10 12.5 10.9 90 259 1.7 3.6 1001.1 0.0000 68.7000
21:20 12.5 11.1 91 257 1.7 2.8 1001.1 0.0000 68.7000
21:30 12.6 11.2 91 259 1.7 2.8 1001.2 0.0000 68.7000
21:40 12.7 11.3 91 253 1.9 3.1 1001.3 0.0000 68.7000
21:50 12.7 11.3 91 249 1.7 2.8 1001.3 0.0000 68.7000
22:00 12.7 11.3 91 251 1.7 3.1 1001.2 0.0000 68.7000
22:10 12.7 11.3 91 252 1.7 2.8 1001.2 0.0000 68.7000
22:21 12.7 11.3 91 263 1.9 3.6 1001.3 0.0000 68.7000
22:37 12.7 11.3 91 262 1.7 2.8 1001.2 0.3030 69.0000
22:46 12.7 11.3 91 270 1.7 2.8 1001.4 1.3130 70.0000
22:56 12.7 11.4 92 297 1.7 3.6 1001.3 2.6260 71.3000
23:17 12.7 11.4 92 283 1.4 2.8 1000.9 2.9290 71.6000
23:27 12.7 11.6 93 270 1.4 2.5 1000.8 3.1310 71.9000
23:37 12.7 11.6 93 262 1.4 2.2 1000.6 4.0400 73.0000
23:47 12.7 11.6 93 284 1.7 3.6 1000.6 3.5350 73.5000
23:57 12.7 11.6 93 291 1.9 5 1000.6 2.3230

СТАТИСТИКА ЗА ДЕНЬ

2020-09-26
TЕМПЕРАТУРА
СРЕДНЯЯ
11.2
МАКСИМАЛЬНАЯ
14.1
18:28
МИНИМАЛЬНАЯ
9.6
10:13
ДАВЛЕНИЕ
СРЕДНЯЯ
999.1
МАКСИМАЛЬНАЯ
1001.4
22:46
МИНИМАЛЬНАЯ
995.4
01:21
ТОЧКА РОСЫ
СРЕДНЯЯ
10.0
МАКСИМАЛЬНАЯ
12.1
16:52
МИНИМАЛЬНАЯ
8.5
10:13
ВЛАЖНОСТЬ
СРЕДНЯЯ
92
МАКСИМАЛЬНАЯ
95
12:54
МИНИМАЛЬНАЯ
84
19:19
СКОРОСТЬ ВЕТРА
СРЕДНЯЯ
1.9
МАКСИМАЛЬНАЯ
5.0
04:10
WIND GUST
СРЕДНЯЯ
4.2
МАКСИМАЛЬНАЯ
11.7
01:33
НАПРАВЛЕНИЕ ВЕТРА
PREVAILING
З
79.6%
С
0.0
СВ
0.0
В
0.7
ЮВ
0.7
Ю
0.7
ЮЗ
2.8
З
79.6
СЗ
14.1
ОСАДКИ
КОЛИЧЕСТВО ОСАДКОВ В ЧАС
12.3
КОЛИЧЕСТВО ОСАДКОВ В ДЕНЬ
73.5
TЕМПЕРАТУРА (°C)
МИНИМАЛЬНАЯ
9.6
МАКСИМАЛЬНАЯ
14.1
СРЕДНЯЯ
11.2
ДАВЛЕНИЕ (hpa)
МИНИМАЛЬНАЯ
995.4
МАКСИМАЛЬНАЯ
1001.4
СРЕДНЯЯ
999.1
УСТРОЙСТВО